createdAt,value
2019-04-30T00:03:41.775Z,101761.23
2019-04-30T00:08:47.258Z,101755.55
2019-04-30T00:13:55.354Z,101751.72
2019-04-30T00:19:00.898Z,101749.36
2019-04-30T00:24:10.285Z,101755.97
2019-04-30T00:29:19.129Z,101756.09
2019-04-30T00:34:21.012Z,101749.70
2019-04-30T00:39:27.262Z,101750.20
2019-04-30T00:44:32.768Z,101757.61
2019-04-30T00:49:38.239Z,101743.98
2019-04-30T00:54:45.210Z,101740.21
2019-04-30T00:59:50.910Z,101728.37
2019-04-30T01:05:05.289Z,101742.20
2019-04-30T01:10:07.045Z,101738.02
2019-04-30T01:15:14.443Z,101733.59
2019-04-30T01:20:23.973Z,101738.55
2019-04-30T01:25:28.826Z,101727.88
2019-04-30T01:30:34.497Z,101728.16
2019-04-30T01:35:40.618Z,101725.42
2019-04-30T01:40:47.546Z,101726.47
2019-04-30T01:45:53.317Z,101720.24
2019-04-30T01:51:01.115Z,101715.09
2019-04-30T01:56:22.798Z,101713.22
2019-04-30T02:01:31.184Z,101707.53
2019-04-30T02:06:36.966Z,101712.53
2019-04-30T02:11:42.647Z,101717.42
2019-04-30T02:16:49.433Z,101729.94
2019-04-30T02:21:54.985Z,101723.77
2019-04-30T02:27:00.425Z,101730.92
2019-04-30T02:32:06.116Z,101733.92
2019-04-30T02:37:21.551Z,101739.47
2019-04-30T02:42:29.595Z,101738.66
2019-04-30T02:47:34.209Z,101739.21
2019-04-30T02:52:40.209Z,101735.16
2019-04-30T02:57:45.792Z,101726.52
2019-04-30T03:02:51.276Z,101732.68
2019-04-30T03:07:56.822Z,101726.47
2019-04-30T03:13:02.245Z,101722.66
2019-04-30T03:18:23.019Z,101718.64
2019-04-30T03:23:29.369Z,101722.40
2019-04-30T03:28:34.909Z,101713.56
2019-04-30T03:33:42.498Z,101713.09
2019-04-30T03:38:49.900Z,101717.87
2019-04-30T03:43:54.778Z,101721.64
2019-04-30T03:49:00.270Z,101704.22
2019-04-30T03:54:05.726Z,101707.76
2019-04-30T03:59:11.162Z,101704.54
2019-04-30T04:04:26.155Z,101701.80
2019-04-30T04:09:39.981Z,101707.67
2019-04-30T04:14:44.857Z,101710.57
2019-04-30T04:19:51.127Z,101704.52
2019-04-30T04:24:59.722Z,101714.02
2019-04-30T04:30:04.164Z,101704.61
2019-04-30T04:35:12.624Z,101705.25
2019-04-30T04:40:17.000Z,101707.54
2019-04-30T04:45:22.552Z,101714.45
2019-04-30T04:50:30.181Z,101715.75
2019-04-30T04:55:35.563Z,101713.81
2019-04-30T05:00:41.100Z,101712.41
2019-04-30T05:05:46.589Z,101710.76
2019-04-30T05:10:52.045Z,101710.23
2019-04-30T05:15:59.415Z,101714.97
2019-04-30T05:21:04.769Z,101712.30
2019-04-30T05:26:11.088Z,101705.10
2019-04-30T05:31:18.482Z,101712.16
2019-04-30T05:36:23.929Z,101717.77
2019-04-30T05:41:29.519Z,101714.73
2019-04-30T05:46:35.051Z,101719.92
2019-04-30T05:51:52.620Z,101720.56
2019-04-30T05:56:49.303Z,101721.36
2019-04-30T06:01:54.949Z,101723.92
2019-04-30T06:07:00.635Z,101725.37
2019-04-30T06:12:33.751Z,101729.25
2019-04-30T06:17:39.395Z,101740.86
2019-04-30T06:22:44.804Z,101741.36
2019-04-30T06:27:50.238Z,101745.70
2019-04-30T06:32:55.684Z,101742.78
2019-04-30T06:38:01.282Z,101748.64
2019-04-30T06:43:06.750Z,101748.70
2019-04-30T06:48:16.865Z,101740.17
2019-04-30T06:53:22.399Z,101728.75
2019-04-30T06:58:29.111Z,101717.73
2019-04-30T07:03:35.130Z,101711.58
2019-04-30T07:09:11.869Z,101712.69
2019-04-30T07:14:19.444Z,101722.90
2019-04-30T07:19:33.025Z,101732.60
2019-04-30T07:24:32.030Z,101723.59
2019-04-30T07:29:39.271Z,101727.89
2019-04-30T07:34:44.945Z,101711.38
2019-04-30T07:39:50.678Z,101704.05
2019-04-30T07:44:56.613Z,101705.41
2019-04-30T07:50:02.389Z,101704.66
2019-04-30T07:55:09.802Z,101716.77
2019-04-30T08:00:15.941Z,101719.88
2019-04-30T08:05:29.880Z,101726.78
2019-04-30T08:10:35.232Z,101731.82
2019-04-30T08:15:42.331Z,101734.98
2019-04-30T08:20:48.988Z,101725.25
2019-04-30T08:25:54.638Z,101733.84
2019-04-30T08:31:00.056Z,101724.66
2019-04-30T08:36:05.520Z,101713.13
2019-04-30T08:41:11.243Z,101700.69
2019-04-30T08:46:19.025Z,101697.92
2019-04-30T08:51:24.659Z,101678.00
2019-04-30T08:56:30.591Z,101672.36
2019-04-30T09:01:36.384Z,101658.83
2019-04-30T09:06:42.191Z,101655.66
2019-04-30T09:11:54.692Z,101653.13
2019-04-30T09:16:55.661Z,101647.28
2019-04-30T09:22:01.427Z,101653.34
2019-04-30T09:27:10.597Z,101642.95
2019-04-30T09:32:14.737Z,101640.50
2019-04-30T09:37:20.595Z,101649.55
2019-04-30T09:42:26.363Z,101659.05
2019-04-30T09:47:32.118Z,101655.28
2019-04-30T09:52:39.571Z,101659.12
2019-04-30T09:57:45.709Z,101670.67
2019-04-30T10:02:51.405Z,101679.97
2019-04-30T10:07:59.220Z,101673.84
2019-04-30T10:13:04.701Z,101675.38
2019-04-30T10:18:10.537Z,101678.66
2019-04-30T10:23:15.965Z,101671.08
2019-04-30T10:28:21.472Z,101658.62
2019-04-30T10:33:28.671Z,101660.55
2019-04-30T10:38:34.287Z,101662.62
2019-04-30T10:43:39.809Z,101655.91
2019-04-30T10:48:45.294Z,101653.69
2019-04-30T10:53:50.899Z,101643.78
2019-04-30T10:58:56.389Z,101644.48
2019-04-30T11:04:01.925Z,101638.88
2019-04-30T11:09:08.735Z,101631.07
2019-04-30T11:14:14.255Z,101631.67
2019-04-30T11:19:19.837Z,101621.25
2019-04-30T11:24:35.989Z,101622.40
2019-04-30T11:29:34.574Z,101607.80
2019-04-30T11:34:40.433Z,101597.55
2019-04-30T11:39:46.163Z,101594.23
2019-04-30T11:44:51.620Z,101577.67
2019-04-30T11:49:57.264Z,101570.58
2019-04-30T11:55:02.858Z,101565.50
2019-04-30T12:00:10.803Z,101560.83
2019-04-30T12:05:20.570Z,101555.45
2019-04-30T12:10:50.384Z,101555.30
2019-04-30T12:15:58.664Z,101543.25
2019-04-30T12:21:03.708Z,101546.39
2019-04-30T12:26:09.348Z,101531.95
2019-04-30T12:31:14.948Z,101528.22
2019-04-30T12:36:20.549Z,101527.59
2019-04-30T12:41:26.052Z,101528.48
2019-04-30T12:46:31.721Z,101520.83
2019-04-30T12:52:02.076Z,101512.91
2019-04-30T12:57:32.391Z,101504.08
2019-04-30T13:02:37.986Z,101506.11
2019-04-30T13:07:43.905Z,101489.28
2019-04-30T13:12:50.285Z,101490.30
2019-04-30T13:17:56.016Z,101487.83
2019-04-30T13:23:01.465Z,101483.66
2019-04-30T13:28:11.875Z,101483.41
2019-04-30T13:33:39.270Z,101466.06
2019-04-30T13:38:52.957Z,101469.02
2019-04-30T13:44:00.050Z,101464.89
2019-04-30T13:49:05.536Z,101456.55
2019-04-30T13:54:11.215Z,101452.33
2019-04-30T13:59:16.617Z,101441.98
2019-04-30T14:04:47.205Z,101440.03
2019-04-30T14:09:52.809Z,101442.43
2019-04-30T14:14:59.212Z,101435.23
2019-04-30T14:20:04.999Z,101425.55
2019-04-30T14:25:10.538Z,101420.15
2019-04-30T14:30:16.790Z,101423.53
2019-04-30T14:35:22.343Z,101414.81
2019-04-30T14:40:29.947Z,101413.58
2019-04-30T14:45:52.951Z,101410.84
2019-04-30T14:50:58.616Z,101409.93
2019-04-30T14:56:31.825Z,101409.82
2019-04-30T15:01:51.722Z,101404.30
2019-04-30T15:06:58.799Z,101408.90
2019-04-30T15:12:04.608Z,101402.16
2019-04-30T15:17:10.215Z,101391.02
2019-04-30T15:22:15.717Z,101395.34
2019-04-30T15:27:21.165Z,101384.60
2019-04-30T15:32:28.453Z,101391.66
2019-04-30T15:37:34.194Z,101383.87
2019-04-30T15:42:42.849Z,101382.45
2019-04-30T15:47:48.676Z,101372.50
2019-04-30T15:52:54.179Z,101372.86
2019-04-30T15:58:15.951Z,101374.47
2019-04-30T16:03:25.729Z,101369.55
2019-04-30T16:08:39.086Z,101364.98
2019-04-30T16:14:18.870Z,101372.27
2019-04-30T16:19:24.414Z,101368.83
2019-04-30T16:24:29.972Z,101372.46
2019-04-30T16:29:35.634Z,101375.29
2019-04-30T16:34:41.190Z,101370.00
2019-04-30T16:39:46.686Z,101374.05
2019-04-30T16:44:52.144Z,101377.26
2019-04-30T16:49:58.898Z,101377.75
2019-04-30T16:55:04.521Z,101376.91
2019-04-30T17:00:10.339Z,101382.16
2019-04-30T17:05:26.338Z,101375.24
2019-04-30T17:10:47.233Z,101376.48
2019-04-30T17:15:56.098Z,101376.16
2019-04-30T17:21:01.816Z,101377.52
2019-04-30T17:26:07.410Z,101376.63
2019-04-30T17:31:13.555Z,101377.11
2019-04-30T17:36:19.357Z,101388.46
2019-04-30T17:41:25.080Z,101384.28
2019-04-30T17:46:30.559Z,101395.11
2019-04-30T17:51:36.102Z,101397.39
2019-04-30T17:56:41.787Z,101399.76
2019-04-30T18:01:54.952Z,101409.59
2019-04-30T18:07:00.498Z,101406.16
2019-04-30T18:12:05.991Z,101414.23
2019-04-30T18:17:11.650Z,101419.66
2019-04-30T18:22:26.377Z,101425.78
2019-04-30T18:27:45.294Z,101425.08
2019-04-30T18:32:44.129Z,101431.41
2019-04-30T18:37:49.613Z,101434.39
2019-04-30T18:42:55.123Z,101435.03
2019-04-30T18:48:02.923Z,101443.33
2019-04-30T18:53:20.269Z,101446.59
2019-04-30T18:58:38.907Z,101444.05
2019-04-30T19:03:33.637Z,101454.20
2019-04-30T19:08:48.429Z,101464.25
2019-04-30T19:14:11.381Z,101462.01
2019-04-30T19:19:22.617Z,101475.06
2019-04-30T19:24:28.040Z,101472.97
2019-04-30T19:29:33.445Z,101478.35
2019-04-30T19:34:39.116Z,101481.73
2019-04-30T19:39:44.617Z,101489.05
2019-04-30T19:44:58.873Z,101485.96
2019-04-30T19:49:59.402Z,101492.68
2019-04-30T19:55:04.447Z,101495.03
2019-04-30T20:00:09.928Z,101495.25
2019-04-30T20:05:15.388Z,101493.14
2019-04-30T20:10:20.802Z,101495.44
2019-04-30T20:15:26.420Z,101493.64
2019-04-30T20:20:31.844Z,101496.93
2019-04-30T20:25:37.436Z,101494.02
2019-04-30T20:30:42.859Z,101499.20
2019-04-30T20:35:48.899Z,101496.31
2019-04-30T20:41:00.114Z,101493.23
2019-04-30T20:46:01.748Z,101489.02
2019-04-30T20:51:07.157Z,101492.75
2019-04-30T20:56:12.820Z,101485.66
2019-04-30T21:01:19.319Z,101489.38
2019-04-30T21:06:24.856Z,101485.08
2019-04-30T21:11:30.298Z,101481.66
2019-04-30T21:16:35.901Z,101483.52
2019-04-30T21:21:41.427Z,101480.59
2019-04-30T21:26:46.974Z,101480.58
2019-04-30T21:32:21.290Z,101483.11
2019-04-30T21:37:26.925Z,101476.77
2019-04-30T21:42:32.378Z,101476.72
2019-04-30T21:47:37.836Z,101470.42
2019-04-30T21:52:43.469Z,101477.55
2019-04-30T21:57:49.648Z,101475.09
2019-04-30T22:02:55.185Z,101475.68
2019-04-30T22:08:01.787Z,101474.41
2019-04-30T22:13:08.908Z,101473.87
2019-04-30T22:18:14.613Z,101476.55
2019-04-30T22:23:20.057Z,101471.23
2019-04-30T22:28:25.467Z,101472.29
2019-04-30T22:33:31.124Z,101471.45
2019-04-30T22:38:41.013Z,101471.14
2019-04-30T22:43:46.440Z,101473.65
2019-04-30T22:48:51.901Z,101466.53
2019-04-30T22:53:57.330Z,101465.96
2019-04-30T22:59:02.711Z,101466.81
2019-04-30T23:04:11.980Z,101460.55
2019-04-30T23:09:17.441Z,101460.30
2019-04-30T23:14:22.859Z,101460.16
2019-04-30T23:19:28.282Z,101463.16
2019-04-30T23:24:33.704Z,101456.88
2019-04-30T23:29:39.124Z,101456.64
2019-04-30T23:34:44.599Z,101453.91
2019-04-30T23:39:50.147Z,101454.75
2019-04-30T23:44:55.623Z,101450.14
2019-04-30T23:50:01.065Z,101444.61
2019-04-30T23:55:06.651Z,101440.67
